ガーンジー島 の空港の天気 - METARとTAF

ガーンジー空港 ( EGJB / GCI ) - ガーンジー島 ガーンジー島
飛行場実況気象(Metar)
観測時間12/01 22:50 GMT (12/01 22:50 UTC)
風向・風速北北東 2m/s
視程10km以上
天気現象
全天の4割程度の雲 雲底高度 850m
気温7℃
湿度76%
気圧1026hPa
METAREGJB 012250Z 02004KT 9999 SCT028 07/03 Q1026
過去の天気等 Google飛行場航空写真 Wunderground天気予報

過去48時間のMETAR

飛行場予報(TAF)
発表時間: 12/01 19:59 GMT (12/01 19:59 UTC)
予報対象時間: 1日21時 GMT ~ 2日6時 GMT
風向・風速北北東 3m/s
視程10km以上
全天の4割程度の雲 雲底高度 850m
TAF EGJB 011959Z 0121/0206 02006KT 9999 SCT028